createdAt,value
2018-04-18T00:00:53.963Z,14.10
2018-04-18T00:03:21.563Z,14.10
2018-04-18T00:05:49.092Z,14.10
2018-04-18T00:08:16.616Z,14.10
2018-04-18T00:10:44.154Z,14.10
2018-04-18T00:13:11.691Z,14.10
2018-04-18T00:15:39.229Z,14.20
2018-04-18T00:18:06.749Z,14.10
2018-04-18T00:20:35.158Z,14.10
2018-04-18T00:23:02.684Z,14.00
2018-04-18T00:25:30.220Z,14.00
2018-04-18T00:27:57.753Z,14.00
2018-04-18T00:30:25.283Z,13.90
2018-04-18T00:32:53.577Z,13.70
2018-04-18T00:35:21.105Z,13.70
2018-04-18T00:37:49.421Z,13.50
2018-04-18T00:40:17.091Z,13.60
2018-04-18T00:42:44.604Z,13.50
2018-04-18T00:45:12.131Z,13.50
2018-04-18T00:47:39.673Z,13.30
2018-04-18T00:50:07.205Z,13.30
2018-04-18T00:52:34.730Z,13.30
2018-04-18T00:55:02.241Z,13.20
2018-04-18T00:57:29.752Z,13.10
2018-04-18T00:59:57.273Z,13.10
2018-04-18T01:02:24.800Z,13.10
2018-04-18T01:04:52.346Z,12.80
2018-04-18T01:07:19.882Z,12.90
2018-04-18T01:09:48.179Z,12.80
2018-04-18T01:12:16.469Z,12.90
2018-04-18T01:14:43.989Z,12.90
2018-04-18T01:17:11.521Z,12.90
2018-04-18T01:19:39.052Z,12.80
2018-04-18T01:22:06.585Z,12.80
2018-04-18T01:24:34.153Z,12.80
2018-04-18T01:27:01.665Z,12.70
2018-04-18T01:29:29.201Z,12.70
2018-04-18T01:31:56.728Z,12.70
2018-04-18T01:34:24.241Z,12.60
2018-04-18T01:36:51.769Z,12.60
2018-04-18T01:39:19.289Z,12.50
2018-04-18T01:41:47.575Z,12.40
2018-04-18T01:44:15.097Z,12.40
2018-04-18T01:46:42.615Z,12.40
2018-04-18T01:49:22.869Z,12.40
2018-04-18T01:51:50.401Z,12.30
2018-04-18T01:54:17.947Z,12.30
2018-04-18T01:56:46.245Z,12.20
2018-04-18T01:59:13.774Z,12.20
2018-04-18T02:01:41.296Z,12.20
2018-04-18T02:04:08.835Z,12.20
2018-04-18T02:06:36.352Z,12.20
2018-04-18T02:09:03.855Z,12.20
2018-04-18T02:11:31.368Z,12.20
2018-04-18T02:13:59.681Z,12.00
2018-04-18T02:16:27.247Z,12.00
2018-04-18T02:18:54.744Z,12.00
2018-04-18T02:21:22.266Z,12.00
2018-04-18T02:23:49.789Z,11.90
2018-04-18T02:26:17.309Z,11.90
2018-04-18T02:28:44.847Z,11.90
2018-04-18T02:31:12.395Z,11.80
2018-04-18T02:33:39.922Z,11.80
2018-04-18T02:36:08.215Z,11.70
2018-04-18T02:38:35.738Z,11.70
2018-04-18T02:41:04.002Z,11.70
2018-04-18T02:43:31.532Z,11.80
2018-04-18T02:45:59.097Z,11.70
2018-04-18T02:48:26.637Z,11.70
2018-04-18T02:50:54.166Z,11.60
2018-04-18T02:53:22.482Z,11.50
2018-04-18T02:55:50.017Z,11.50
2018-04-18T02:58:17.537Z,11.50
2018-04-18T03:00:45.064Z,11.40
2018-04-18T03:03:12.631Z,11.40
2018-04-18T03:05:40.145Z,11.40
2018-04-18T03:08:07.697Z,11.40
2018-04-18T03:10:35.239Z,11.30
2018-04-18T03:13:03.550Z,11.30
2018-04-18T03:15:31.107Z,11.20
2018-04-18T03:17:58.663Z,11.20
2018-04-18T03:20:26.179Z,11.20
2018-04-18T03:22:53.703Z,11.10
2018-04-18T03:25:21.223Z,11.20
2018-04-18T03:27:49.501Z,11.00
2018-04-18T03:30:17.789Z,11.00
2018-04-18T03:32:45.334Z,11.00
2018-04-18T03:35:12.868Z,11.00
2018-04-18T03:37:40.415Z,10.90
2018-04-18T03:40:07.958Z,10.90
2018-04-18T03:42:35.550Z,10.90
2018-04-18T03:45:03.076Z,10.80
2018-04-18T03:47:30.643Z,10.80
2018-04-18T03:49:58.664Z,10.80
2018-04-18T03:52:26.200Z,10.70
2018-04-18T03:54:53.776Z,10.70
2018-04-18T03:57:22.067Z,10.70
2018-04-18T03:59:49.604Z,10.70
2018-04-18T04:02:17.112Z,10.70
2018-04-18T04:04:44.659Z,10.70
2018-04-18T04:07:12.165Z,10.60
2018-04-18T04:09:39.687Z,10.60
2018-04-18T04:12:07.211Z,10.60
2018-04-18T04:14:34.757Z,10.50
2018-04-18T04:17:14.021Z,10.50
2018-04-18T04:19:53.303Z,10.50
2018-04-18T04:22:33.704Z,10.40
2018-04-18T04:25:01.253Z,10.50
2018-04-18T04:27:28.775Z,10.50
2018-04-18T04:29:56.301Z,10.50
2018-04-18T04:32:23.838Z,10.50
2018-04-18T04:34:52.079Z,10.50
2018-04-18T04:37:20.396Z,10.60
2018-04-18T04:39:47.936Z,10.60
2018-04-18T04:42:16.212Z,10.50
2018-04-18T04:44:44.547Z,10.40
2018-04-18T04:47:12.307Z,10.40
2018-04-18T04:49:39.877Z,10.40
2018-04-18T04:52:07.398Z,10.50
2018-04-18T04:54:34.912Z,10.40
2018-04-18T04:57:03.198Z,10.40
2018-04-18T04:59:31.498Z,10.50
2018-04-18T05:01:59.018Z,10.50
2018-04-18T05:04:26.612Z,10.50
2018-04-18T05:06:54.128Z,10.60
2018-04-18T05:09:22.280Z,10.60
2018-04-18T05:11:49.794Z,10.70
2018-04-18T05:14:17.310Z,10.70
2018-04-18T05:16:44.835Z,10.70
2018-04-18T05:19:12.712Z,10.70
2018-04-18T05:21:40.248Z,10.70
2018-04-18T05:24:07.758Z,10.80
2018-04-18T05:26:35.276Z,10.90
2018-04-18T05:29:02.819Z,11.00
2018-04-18T05:31:30.372Z,11.00
2018-04-18T05:33:57.916Z,11.10
2018-04-18T05:36:26.242Z,11.20
2018-04-18T05:38:53.780Z,11.20
2018-04-18T05:41:21.304Z,11.30
2018-04-18T05:43:49.628Z,11.40
2018-04-18T05:46:17.147Z,11.40
2018-04-18T05:48:44.685Z,11.50
2018-04-18T05:51:12.271Z,11.60
2018-04-18T05:53:40.773Z,11.70
2018-04-18T05:56:08.344Z,11.70
2018-04-18T05:58:35.886Z,11.80
2018-04-18T06:01:03.424Z,11.90
2018-04-18T06:03:31.720Z,12.00
2018-04-18T06:05:59.252Z,12.00
2018-04-18T06:08:26.803Z,12.10
2018-04-18T06:10:55.089Z,12.20
2018-04-18T06:13:23.383Z,12.30
2018-04-18T06:15:51.034Z,12.30
2018-04-18T06:18:19.359Z,12.40
2018-04-18T06:20:46.917Z,12.30
2018-04-18T06:23:14.426Z,12.50
2018-04-18T06:25:42.793Z,12.60
2018-04-18T06:28:11.069Z,12.70
2018-04-18T06:30:38.595Z,12.70
2018-04-18T06:33:06.115Z,12.70
2018-04-18T06:35:33.664Z,12.80
2018-04-18T06:38:01.184Z,12.90
2018-04-18T06:40:28.716Z,13.00
2018-04-18T06:42:56.236Z,13.10
2018-04-18T06:45:23.745Z,13.10
2018-04-18T06:47:51.283Z,13.20
2018-04-18T06:50:19.251Z,13.30
2018-04-18T06:52:46.801Z,13.40
2018-04-18T06:55:14.429Z,13.40
2018-04-18T06:57:42.768Z,13.60
2018-04-18T07:00:10.250Z,13.60
2018-04-18T07:02:37.767Z,13.70
2018-04-18T07:05:05.278Z,13.80
2018-04-18T07:07:33.565Z,14.00
2018-04-18T07:10:01.888Z,14.10
2018-04-18T07:12:29.422Z,14.00
2018-04-18T07:14:56.959Z,14.20
2018-04-18T07:17:24.478Z,14.30
2018-04-18T07:19:51.997Z,14.40
2018-04-18T07:22:19.538Z,14.40
2018-04-18T07:24:47.066Z,14.60
2018-04-18T07:27:14.582Z,14.70
2018-04-18T07:29:42.345Z,14.80
2018-04-18T07:32:09.882Z,14.80
2018-04-18T07:34:37.890Z,14.90
2018-04-18T07:37:05.407Z,15.00
2018-04-18T07:39:32.978Z,15.10
2018-04-18T07:42:00.542Z,15.20
2018-04-18T07:44:28.082Z,15.30
2018-04-18T07:46:56.370Z,15.50
2018-04-18T07:49:23.896Z,15.40
2018-04-18T07:51:51.422Z,15.50
2018-04-18T07:54:18.966Z,15.60
2018-04-18T07:56:46.482Z,15.70
2018-04-18T07:59:14.777Z,15.90
2018-04-18T08:01:42.318Z,15.80
2018-04-18T08:04:10.620Z,16.00
2018-04-18T08:06:38.141Z,16.00
2018-04-18T08:09:06.421Z,16.20
2018-04-18T08:11:33.954Z,16.30
2018-04-18T08:14:01.485Z,16.40
2018-04-18T08:16:29.092Z,16.50
2018-04-18T08:18:57.377Z,16.60
2018-04-18T08:21:25.681Z,16.70
2018-04-18T08:23:53.202Z,16.70
2018-04-18T08:26:20.732Z,16.80
2018-04-18T08:28:48.258Z,16.80
2018-04-18T08:31:15.772Z,16.90
2018-04-18T08:33:44.066Z,17.00
2018-04-18T08:36:11.600Z,17.00
2018-04-18T08:38:39.119Z,17.00
2018-04-18T08:41:06.676Z,17.10
2018-04-18T08:43:34.201Z,17.20
2018-04-18T08:46:01.733Z,17.30
2018-04-18T08:48:29.250Z,17.40
2018-04-18T08:50:56.775Z,17.50
2018-04-18T08:53:25.090Z,17.60
2018-04-18T08:55:52.597Z,17.60
2018-04-18T08:58:20.109Z,17.70
2018-04-18T09:00:47.643Z,17.80
2018-04-18T09:03:15.200Z,17.80
2018-04-18T09:05:42.728Z,17.80
2018-04-18T09:08:11.038Z,17.90
2018-04-18T09:10:38.572Z,17.90
2018-04-18T09:13:06.097Z,18.00
2018-04-18T09:15:33.618Z,18.10
2018-04-18T09:18:01.132Z,18.10
2018-04-18T09:20:28.653Z,18.20
2018-04-18T09:22:56.166Z,18.20
2018-04-18T09:25:24.466Z,18.40
2018-04-18T09:27:51.990Z,18.30
2018-04-18T09:30:19.510Z,18.40
2018-04-18T09:32:47.043Z,18.50
2018-04-18T09:35:14.565Z,18.60
2018-04-18T09:37:42.110Z,18.60
2018-04-18T09:40:09.660Z,18.50
2018-04-18T09:42:37.182Z,18.60
2018-04-18T09:45:04.750Z,18.60
2018-04-18T09:47:32.294Z,18.60
2018-04-18T09:49:59.821Z,18.80
2018-04-18T09:52:28.118Z,18.90
2018-04-18T09:54:55.641Z,18.90
2018-04-18T09:57:23.177Z,19.00
2018-04-18T09:59:52.285Z,19.00
2018-04-18T10:05:24.465Z,19.00
2018-04-18T10:07:51.980Z,19.10
2018-04-18T10:10:19.523Z,19.20
2018-04-18T10:12:47.037Z,19.30
2018-04-18T10:15:14.548Z,19.30
2018-04-18T10:17:42.098Z,19.40
2018-04-18T10:20:10.355Z,19.40
2018-04-18T10:22:38.772Z,19.60
2018-04-18T10:25:06.300Z,19.60
2018-04-18T10:27:34.583Z,19.70
2018-04-18T10:30:02.126Z,19.70
2018-04-18T10:32:30.428Z,19.70
2018-04-18T10:34:58.003Z,19.70
2018-04-18T10:37:25.530Z,19.80
2018-04-18T10:39:53.817Z,19.90
2018-04-18T10:42:21.336Z,19.90
2018-04-18T10:44:48.864Z,20.00
2018-04-18T10:47:16.384Z,20.00
2018-04-18T10:49:44.696Z,20.20
2018-04-18T10:52:12.264Z,20.20
2018-04-18T10:54:39.774Z,20.40
2018-04-18T10:57:08.061Z,20.40
2018-04-18T10:59:36.367Z,20.50
2018-04-18T11:02:03.890Z,20.50
2018-04-18T11:04:31.417Z,20.50
2018-04-18T11:06:59.329Z,20.80
2018-04-18T11:09:26.847Z,20.80
2018-04-18T11:11:54.396Z,20.90
2018-04-18T11:14:21.919Z,20.80
2018-04-18T11:16:49.427Z,20.90
2018-04-18T11:19:16.979Z,21.00
2018-04-18T11:21:44.531Z,21.00
2018-04-18T11:24:12.042Z,21.00
2018-04-18T11:26:39.679Z,21.10
2018-04-18T11:29:07.198Z,21.10
2018-04-18T11:31:34.748Z,21.10
2018-04-18T11:34:02.293Z,21.20
2018-04-18T11:36:29.821Z,21.20
2018-04-18T11:38:58.104Z,21.50
2018-04-18T11:41:25.657Z,21.50
2018-04-18T11:43:53.182Z,21.50
2018-04-18T11:46:21.505Z,21.50
2018-04-18T11:48:49.064Z,21.60
2018-04-18T11:51:16.596Z,21.60
2018-04-18T11:53:44.984Z,21.90
2018-04-18T11:56:12.503Z,21.90
2018-04-18T11:58:40.021Z,21.90
2018-04-18T12:01:07.596Z,22.00
2018-04-18T12:03:35.149Z,22.10
2018-04-18T12:06:02.686Z,22.10
2018-04-18T12:08:30.211Z,22.30
2018-04-18T12:10:58.540Z,22.60
2018-04-18T12:13:26.071Z,22.60
2018-04-18T12:15:53.595Z,22.70
2018-04-18T12:18:21.114Z,22.70
2018-04-18T12:20:48.633Z,22.60
2018-04-18T12:23:16.148Z,22.70
2018-04-18T12:25:43.686Z,22.80
2018-04-18T12:28:11.221Z,23.10
2018-04-18T12:30:38.767Z,23.20
2018-04-18T12:33:06.295Z,23.30
2018-04-18T12:35:34.232Z,23.30
2018-04-18T12:38:01.769Z,23.40
2018-04-18T12:40:29.326Z,23.50
2018-04-18T12:42:56.859Z,23.70
2018-04-18T12:45:25.145Z,24.00
2018-04-18T12:47:53.431Z,24.30
2018-04-18T12:50:21.712Z,24.20
2018-04-18T12:52:49.988Z,24.20
2018-04-18T12:55:18.296Z,24.30
2018-04-18T12:57:45.817Z,24.30
2018-04-18T13:00:14.123Z,24.70
2018-04-18T13:02:41.653Z,24.70
2018-04-18T13:05:09.943Z,25.00
2018-04-18T13:07:37.502Z,24.90
2018-04-18T13:10:05.039Z,25.10
2018-04-18T13:12:33.349Z,25.80
2018-04-18T13:15:00.868Z,25.70
2018-04-18T13:17:28.408Z,26.10
2018-04-18T13:19:55.927Z,26.50
2018-04-18T13:22:23.483Z,26.40
2018-04-18T13:24:50.998Z,26.80
2018-04-18T13:27:18.551Z,26.90
2018-04-18T13:29:46.089Z,27.00
2018-04-18T13:32:13.613Z,27.30
2018-04-18T13:34:41.129Z,27.90
2018-04-18T13:37:09.474Z,27.80
2018-04-18T13:39:36.984Z,28.30
2018-04-18T13:42:05.265Z,29.10
2018-04-18T13:44:33.597Z,28.90
2018-04-18T13:47:01.180Z,28.90
2018-04-18T13:49:29.466Z,29.60
2018-04-18T13:51:57.760Z,30.10
2018-04-18T13:54:25.325Z,30.10
2018-04-18T13:56:52.870Z,30.50
2018-04-18T13:59:20.411Z,30.60
2018-04-18T14:01:47.964Z,30.90
2018-04-18T14:04:15.501Z,30.80
2018-04-18T14:06:43.039Z,31.00
2018-04-18T14:09:10.553Z,30.80
2018-04-18T14:11:38.864Z,30.80
2018-04-18T14:14:06.376Z,30.80
2018-04-18T14:16:33.907Z,30.80
2018-04-18T14:19:01.439Z,30.90
2018-04-18T14:21:28.966Z,31.30
2018-04-18T14:23:56.496Z,31.50
2018-04-18T14:26:24.054Z,31.50
2018-04-18T14:28:51.588Z,31.50
2018-04-18T14:31:19.120Z,30.90
2018-04-18T14:33:46.680Z,31.00
2018-04-18T14:36:14.191Z,31.30
2018-04-18T14:38:41.754Z,30.90
2018-04-18T14:41:09.358Z,30.80
2018-04-18T14:43:36.898Z,30.80
2018-04-18T14:46:04.430Z,31.20
2018-04-18T14:48:31.956Z,30.80
2018-04-18T14:50:59.558Z,30.90
2018-04-18T14:53:27.105Z,30.80
2018-04-18T14:55:54.638Z,30.60
2018-04-18T14:58:23.026Z,31.20
2018-04-18T15:00:50.548Z,31.40
2018-04-18T15:03:18.080Z,31.00
2018-04-18T15:05:46.375Z,31.10
2018-04-18T15:08:13.932Z,31.10
2018-04-18T15:10:41.472Z,31.10
2018-04-18T15:13:09.777Z,31.30
2018-04-18T15:15:37.308Z,31.30
2018-04-18T15:18:05.618Z,31.20
2018-04-18T15:20:33.170Z,31.20
2018-04-18T15:23:00.759Z,31.60
2018-04-18T15:25:28.295Z,31.40
2018-04-18T15:27:55.853Z,31.20
2018-04-18T15:30:23.356Z,31.20
2018-04-18T15:32:50.904Z,31.30
2018-04-18T15:35:18.450Z,31.20
2018-04-18T15:37:46.009Z,31.20
2018-04-18T15:40:13.567Z,31.10
2018-04-18T15:42:41.675Z,31.00
2018-04-18T15:45:09.218Z,30.80
2018-04-18T15:47:36.745Z,30.60
2018-04-18T15:50:04.266Z,30.40
2018-04-18T15:52:32.539Z,30.30
2018-04-18T15:55:01.752Z,30.20
2018-04-18T15:57:29.299Z,30.20
2018-04-18T15:59:57.605Z,30.30
2018-04-18T16:02:25.145Z,30.20
2018-04-18T16:04:52.698Z,30.10
2018-04-18T16:07:20.230Z,29.90
2018-04-18T16:09:47.773Z,30.00
2018-04-18T16:12:15.314Z,29.90
2018-04-18T16:14:42.865Z,29.60
2018-04-18T16:17:10.413Z,29.70
2018-04-18T16:19:37.979Z,29.70
2018-04-18T16:22:05.533Z,29.60
2018-04-18T16:24:33.055Z,29.60
2018-04-18T16:27:01.399Z,29.30
2018-04-18T16:29:40.724Z,29.20
2018-04-18T16:32:08.342Z,29.30
2018-04-18T16:34:35.894Z,29.40
2018-04-18T16:37:04.214Z,29.20
2018-04-18T16:39:31.782Z,29.20
2018-04-18T16:41:59.336Z,29.20
2018-04-18T16:44:26.840Z,29.30
2018-04-18T16:46:54.351Z,29.10
2018-04-18T16:49:21.885Z,28.90
2018-04-18T16:51:49.425Z,28.80
2018-04-18T16:54:16.958Z,28.50
2018-04-18T16:56:44.483Z,28.30
2018-04-18T16:59:12.029Z,28.10
2018-04-18T17:01:39.579Z,28.10
2018-04-18T17:04:07.129Z,28.00
2018-04-18T17:06:34.669Z,28.00
2018-04-18T17:09:02.991Z,27.90
2018-04-18T17:11:30.517Z,27.90
2018-04-18T17:13:58.077Z,27.60
2018-04-18T17:16:26.407Z,27.40
2018-04-18T17:18:53.935Z,27.40
2018-04-18T17:21:21.458Z,27.30
2018-04-18T17:23:49.738Z,27.00
2018-04-18T17:26:18.082Z,26.80
2018-04-18T17:28:46.065Z,26.80
2018-04-18T17:31:14.490Z,26.50
2018-04-18T17:33:42.026Z,26.50
2018-04-18T17:36:10.333Z,26.20
2018-04-18T17:38:37.878Z,26.30
2018-04-18T17:41:06.218Z,26.10
2018-04-18T17:43:34.517Z,25.70
2018-04-18T17:46:02.847Z,25.60
2018-04-18T17:48:30.408Z,25.60
2018-04-18T17:50:57.923Z,25.50
2018-04-18T17:53:25.464Z,25.50
2018-04-18T17:55:53.026Z,25.30
2018-04-18T17:58:21.341Z,25.00
2018-04-18T18:00:48.910Z,25.00
2018-04-18T18:03:16.462Z,24.90
2018-04-18T18:05:44.274Z,24.80
2018-04-18T18:08:12.684Z,24.60
2018-04-18T18:10:40.320Z,24.50
2018-04-18T18:13:08.644Z,24.30
2018-04-18T18:15:36.215Z,24.30
2018-04-18T18:18:03.826Z,24.20
2018-04-18T18:20:32.194Z,24.00
2018-04-18T18:22:59.829Z,23.90
2018-04-18T18:25:27.433Z,23.80
2018-04-18T18:27:56.038Z,23.70
2018-04-18T18:30:23.638Z,23.60
2018-04-18T18:32:51.262Z,23.40
2018-04-18T18:35:19.519Z,23.40
2018-04-18T18:37:47.275Z,23.20
2018-04-18T18:40:15.126Z,23.20
2018-04-18T18:42:42.752Z,23.10
2018-04-18T18:45:10.371Z,23.00
2018-04-18T18:47:37.983Z,23.00
2018-04-18T18:50:05.603Z,22.90
2018-04-18T18:52:33.217Z,22.70
2018-04-18T18:55:00.884Z,22.60
2018-04-18T18:57:28.587Z,22.50
2018-04-18T18:59:56.322Z,22.40
2018-04-18T19:02:23.946Z,22.40
2018-04-18T19:04:51.751Z,22.30
2018-04-18T19:07:19.523Z,22.30
2018-04-18T19:09:47.289Z,22.10
2018-04-18T19:12:14.940Z,22.00
2018-04-18T19:14:42.689Z,21.90
2018-04-18T19:17:11.156Z,21.70
2018-04-18T19:19:39.638Z,21.60
2018-04-18T19:22:07.460Z,21.60
2018-04-18T19:24:35.031Z,21.60
2018-04-18T19:27:02.709Z,21.50
2018-04-18T19:29:31.248Z,21.30
2018-04-18T19:31:58.899Z,21.30
2018-04-18T19:34:26.468Z,21.30
2018-04-18T19:36:54.013Z,21.20
2018-04-18T19:39:21.640Z,21.10
2018-04-18T19:41:49.282Z,20.90
2018-04-18T19:44:16.879Z,20.90
2018-04-18T19:46:45.223Z,20.80
2018-04-18T19:49:13.717Z,20.80
2018-04-18T19:51:41.302Z,20.70
2018-04-18T19:54:08.877Z,20.70
2018-04-18T19:56:36.433Z,20.60
2018-04-18T19:59:04.037Z,20.60
2018-04-18T20:01:32.463Z,20.60
2018-04-18T20:04:00.318Z,20.60
2018-04-18T20:06:27.965Z,20.50
2018-04-18T20:08:55.599Z,20.40
2018-04-18T20:11:23.293Z,20.40
2018-04-18T20:13:51.639Z,20.10
2018-04-18T20:16:19.229Z,20.10
2018-04-18T20:18:46.845Z,20.00
2018-04-18T20:21:15.132Z,20.00
2018-04-18T20:23:42.692Z,19.90
2018-04-18T20:26:10.293Z,19.90
2018-04-18T20:28:38.606Z,19.80
2018-04-18T20:31:06.204Z,19.80
2018-04-18T20:33:33.907Z,19.80
2018-04-18T20:36:01.472Z,19.70
2018-04-18T20:38:29.023Z,19.70
2018-04-18T20:40:56.588Z,19.60
2018-04-18T20:43:24.135Z,19.50
2018-04-18T20:45:51.714Z,19.50
2018-04-18T20:48:19.301Z,19.50
2018-04-18T20:50:47.645Z,19.40
2018-04-18T20:53:15.215Z,19.40
2018-04-18T20:55:42.788Z,19.40
2018-04-18T20:58:10.344Z,19.40
2018-04-18T21:00:37.987Z,19.20
2018-04-18T21:03:05.563Z,19.20
2018-04-18T21:05:33.134Z,19.10
2018-04-18T21:08:00.664Z,19.00
2018-04-18T21:10:28.237Z,18.90
2018-04-18T21:12:55.772Z,18.90
2018-04-18T21:15:24.090Z,18.80
2018-04-18T21:17:51.620Z,18.80
2018-04-18T21:20:19.173Z,18.70
2018-04-18T21:22:46.709Z,18.70
2018-04-18T21:25:14.271Z,18.60
2018-04-18T21:27:42.574Z,18.30
2018-04-18T21:30:10.125Z,18.30
2018-04-18T21:32:37.707Z,18.20
2018-04-18T21:35:05.259Z,18.20
2018-04-18T21:37:33.029Z,18.20
2018-04-18T21:40:00.577Z,18.20
2018-04-18T21:42:28.139Z,18.20
2018-04-18T21:44:55.671Z,18.20
2018-04-18T21:47:23.227Z,18.20
2018-04-18T21:49:51.528Z,18.10
2018-04-18T21:52:19.132Z,18.10
2018-04-18T21:54:46.681Z,18.00
2018-04-18T21:57:14.215Z,17.90
2018-04-18T21:59:41.750Z,17.70
2018-04-18T22:02:09.289Z,17.80
2018-04-18T22:04:37.626Z,17.70
2018-04-18T22:07:05.168Z,17.70
2018-04-18T22:09:33.531Z,17.60
2018-04-18T22:12:01.104Z,17.60
2018-04-18T22:14:28.642Z,17.60
2018-04-18T22:16:56.231Z,17.70
2018-04-18T22:19:24.566Z,17.50
2018-04-18T22:21:53.279Z,17.40
2018-04-18T22:24:20.820Z,17.40
2018-04-18T22:26:49.155Z,17.40
2018-04-18T22:29:16.683Z,17.40
2018-04-18T22:31:44.957Z,17.30
2018-04-18T22:34:12.487Z,17.20
2018-04-18T22:36:40.048Z,17.30
2018-04-18T22:39:07.611Z,17.40
2018-04-18T22:41:35.251Z,17.30
2018-04-18T22:44:03.581Z,17.30
2018-04-18T22:46:31.133Z,17.20
2018-04-18T22:48:58.714Z,17.20
2018-04-18T22:51:26.265Z,17.20
2018-04-18T22:53:53.824Z,17.10
2018-04-18T22:56:21.346Z,17.10
2018-04-18T22:58:48.963Z,17.00
2018-04-18T23:01:16.873Z,17.10
2018-04-18T23:03:44.431Z,17.00
2018-04-18T23:06:11.976Z,17.00
2018-04-18T23:08:39.555Z,17.00
2018-04-18T23:11:07.540Z,17.00
2018-04-18T23:13:35.558Z,17.00
2018-04-18T23:16:03.118Z,17.00
2018-04-18T23:18:30.698Z,16.90
2018-04-18T23:20:58.238Z,16.90
2018-04-18T23:23:25.792Z,16.90
2018-04-18T23:25:53.370Z,16.90
2018-04-18T23:28:21.677Z,16.80
2018-04-18T23:30:49.214Z,16.70
2018-04-18T23:33:17.520Z,16.70
2018-04-18T23:35:45.069Z,16.70
2018-04-18T23:38:12.600Z,16.70
2018-04-18T23:40:40.933Z,16.70
2018-04-18T23:43:08.466Z,16.60
2018-04-18T23:45:36.001Z,16.60
2018-04-18T23:48:03.530Z,16.60
2018-04-18T23:50:31.065Z,16.60
2018-04-18T23:52:59.058Z,16.60
2018-04-18T23:55:26.652Z,16.60
2018-04-18T23:57:54.176Z,16.60
